sensor_id;sensor_type;location;lat;lon;timestamp;pressure;altitude;pressure_sealevel;temperature;humidity
72096;BME280;59968;51.084;16.748;2024-02-21T00:01:48;100913.39;;;8.81;75.35
72096;BME280;59968;51.084;16.748;2024-02-21T00:04:20;100910.73;;;8.85;75.31
72096;BME280;59968;51.084;16.748;2024-02-21T00:06:52;100904.66;;;8.85;75.23
72096;BME280;59968;51.084;16.748;2024-02-21T00:09:30;100903.29;;;8.88;75.21
72096;BME280;59968;51.084;16.748;2024-02-21T00:11:59;100903.04;;;8.87;75.11
72096;BME280;59968;51.084;16.748;2024-02-21T00:15:03;100898.48;;;8.89;75.15
72096;BME280;59968;51.084;16.748;2024-02-21T00:17:38;100895.91;;;8.91;75.22
72096;BME280;59968;51.084;16.748;2024-02-21T00:20:19;100897.92;;;8.95;74.98
72096;BME280;59968;51.084;16.748;2024-02-21T00:22:51;100894.52;;;8.94;74.88
72096;BME280;59968;51.084;16.748;2024-02-21T00:25:23;100895.65;;;8.93;74.89
72096;BME280;59968;51.084;16.748;2024-02-21T00:28:01;100890.88;;;8.93;74.87
72096;BME280;59968;51.084;16.748;2024-02-21T00:30:34;100887.67;;;8.92;74.88
72096;BME280;59968;51.084;16.748;2024-02-21T00:33:09;100887.02;;;8.90;74.95
72096;BME280;59968;51.084;16.748;2024-02-21T00:35:50;100880.80;;;8.90;74.94
72096;BME280;59968;51.084;16.748;2024-02-21T00:38:31;100879.62;;;8.88;75.10
72096;BME280;59968;51.084;16.748;2024-02-21T00:41:03;100884.17;;;8.91;75.05
72096;BME280;59968;51.084;16.748;2024-02-21T00:43:44;100878.97;;;8.90;75.09
72096;BME280;59968;51.084;16.748;2024-02-21T00:46:16;100878.42;;;8.91;75.08
72096;BME280;59968;51.084;16.748;2024-02-21T00:48:47;100879.65;;;8.98;74.90
72096;BME280;59968;51.084;16.748;2024-02-21T00:51:16;100875.79;;;8.98;74.89
72096;BME280;59968;51.084;16.748;2024-02-21T00:53:50;100876.98;;;9.00;75.02
72096;BME280;59968;51.084;16.748;2024-02-21T00:56:28;100872.42;;;8.99;74.95
72096;BME280;59968;51.084;16.748;2024-02-21T00:59:03;100869.29;;;8.99;75.17
72096;BME280;59968;51.084;16.748;2024-02-21T01:01:45;100867.63;;;9.00;75.19
72096;BME280;59968;51.084;16.748;2024-02-21T01:04:20;100863.13;;;9.02;75.26
72096;BME280;59968;51.084;16.748;2024-02-21T01:06:50;100862.41;;;8.97;75.50
72096;BME280;59968;51.084;16.748;2024-02-21T01:09:25;100860.55;;;9.02;75.54
72096;BME280;59968;51.084;16.748;2024-02-21T01:12:00;100862.73;;;9.05;75.57
72096;BME280;59968;51.084;16.748;2024-02-21T01:14:36;100860.35;;;9.08;75.49
72096;BME280;59968;51.084;16.748;2024-02-21T01:17:11;100856.36;;;9.09;75.58
72096;BME280;59968;51.084;16.748;2024-02-21T01:19:40;100853.98;;;9.07;75.68
72096;BME280;59968;51.084;16.748;2024-02-21T01:22:12;100852.68;;;9.08;75.75
72096;BME280;59968;51.084;16.748;2024-02-21T01:24:47;100846.81;;;9.11;75.66
72096;BME280;59968;51.084;16.748;2024-02-21T01:27:29;100844.27;;;9.13;75.55
72096;BME280;59968;51.084;16.748;2024-02-21T01:29:58;100839.79;;;9.15;75.47
72096;BME280;59968;51.084;16.748;2024-02-21T01:32:27;100838.33;;;9.16;75.37
72096;BME280;59968;51.084;16.748;2024-02-21T01:34:56;100834.61;;;9.17;75.36
72096;BME280;59968;51.084;16.748;2024-02-21T01:37:31;100828.70;;;9.17;75.35
72096;BME280;59968;51.084;16.748;2024-02-21T01:40:00;100830.89;;;9.21;75.23
72096;BME280;59968;51.084;16.748;2024-02-21T01:42:38;100824.86;;;9.23;75.19
72096;BME280;59968;51.084;16.748;2024-02-21T01:45:08;100818.43;;;9.22;75.09
72096;BME280;59968;51.084;16.748;2024-02-21T01:47:48;100819.70;;;9.14;75.08
72096;BME280;59968;51.084;16.748;2024-02-21T01:50:22;100814.78;;;9.05;75.30
72096;BME280;59968;51.084;16.748;2024-02-21T01:52:52;100807.30;;;8.98;75.40
72096;BME280;59968;51.084;16.748;2024-02-21T01:55:24;100801.16;;;8.91;75.42
72096;BME280;59968;51.084;16.748;2024-02-21T01:57:57;100796.76;;;8.84;75.61
72096;BME280;59968;51.084;16.748;2024-02-21T02:00:29;100800.17;;;8.78;75.58
72096;BME280;59968;51.084;16.748;2024-02-21T02:02:59;100798.10;;;8.74;75.67
72096;BME280;59968;51.084;16.748;2024-02-21T02:05:35;100795.67;;;8.68;75.67
72096;BME280;59968;51.084;16.748;2024-02-21T02:08:19;100787.25;;;8.58;75.73
72096;BME280;59968;51.084;16.748;2024-02-21T02:10:54;100791.03;;;8.53;75.82
72096;BME280;59968;51.084;16.748;2024-02-21T02:13:26;100789.94;;;8.47;75.90
72096;BME280;59968;51.084;16.748;2024-02-21T02:15:57;100782.70;;;8.40;75.99
72096;BME280;59968;51.084;16.748;2024-02-21T02:18:29;100780.80;;;8.34;76.20
72096;BME280;59968;51.084;16.748;2024-02-21T02:21:35;100777.20;;;8.29;76.18
72096;BME280;59968;51.084;16.748;2024-02-21T02:24:08;100778.11;;;8.26;76.21
72096;BME280;59968;51.084;16.748;2024-02-21T02:26:43;100773.10;;;8.19;76.33
72096;BME280;59968;51.084;16.748;2024-02-21T02:29:19;100772.38;;;8.16;76.60
72096;BME280;59968;51.084;16.748;2024-02-21T02:31:57;100775.99;;;8.13;76.72
72096;BME280;59968;51.084;16.748;2024-02-21T02:34:31;100770.73;;;8.11;76.87
72096;BME280;59968;51.084;16.748;2024-02-21T02:37:00;100768.31;;;8.11;76.98
72096;BME280;59968;51.084;16.748;2024-02-21T02:39:36;100766.18;;;8.13;77.15
72096;BME280;59968;51.084;16.748;2024-02-21T02:42:09;100762.27;;;8.16;77.18
72096;BME280;59968;51.084;16.748;2024-02-21T02:44:41;100762.05;;;8.21;77.18
72096;BME280;59968;51.084;16.748;2024-02-21T02:47:13;100759.15;;;8.26;77.07
72096;BME280;59968;51.084;16.748;2024-02-21T02:49:45;100753.50;;;8.25;77.11
72096;BME280;59968;51.084;16.748;2024-02-21T02:52:32;100756.73;;;8.27;77.17
72096;BME280;59968;51.084;16.748;2024-02-21T02:55:17;100754.48;;;8.32;76.99
72096;BME280;59968;51.084;16.748;2024-02-21T02:58:00;100752.89;;;8.39;76.91
72096;BME280;59968;51.084;16.748;2024-02-21T03:00:33;100753.83;;;8.43;76.73
72096;BME280;59968;51.084;16.748;2024-02-21T03:03:09;100752.97;;;8.48;76.67
72096;BME280;59968;51.084;16.748;2024-02-21T03:05:39;100747.23;;;8.50;76.62
72096;BME280;59968;51.084;16.748;2024-02-21T03:08:15;100748.92;;;8.54;76.49
72096;BME280;59968;51.084;16.748;2024-02-21T03:10:51;100747.30;;;8.54;76.39
72096;BME280;59968;51.084;16.748;2024-02-21T03:13:26;100742.88;;;8.54;76.36
72096;BME280;59968;51.084;16.748;2024-02-21T03:16:05;100747.65;;;8.54;76.36
72096;BME280;59968;51.084;16.748;2024-02-21T03:18:37;100742.75;;;8.52;76.30
72096;BME280;59968;51.084;16.748;2024-02-21T03:21:14;100739.30;;;8.50;76.40
72096;BME280;59968;51.084;16.748;2024-02-21T03:23:43;100735.95;;;8.50;76.32
72096;BME280;59968;51.084;16.748;2024-02-21T03:26:12;100728.02;;;8.46;76.30
72096;BME280;59968;51.084;16.748;2024-02-21T03:28:54;100729.36;;;8.45;76.22
72096;BME280;59968;51.084;16.748;2024-02-21T03:31:23;100728.81;;;8.42;76.41
72096;BME280;59968;51.084;16.748;2024-02-21T03:33:58;100724.39;;;8.41;76.25
72096;BME280;59968;51.084;16.748;2024-02-21T03:36:38;100724.55;;;8.41;76.24
72096;BME280;59968;51.084;16.748;2024-02-21T03:39:35;100722.18;;;8.41;76.30
72096;BME280;59968;51.084;16.748;2024-02-21T03:42:06;100724.84;;;8.40;76.23
72096;BME280;59968;51.084;16.748;2024-02-21T03:44:46;100725.08;;;8.40;76.28
72096;BME280;59968;51.084;16.748;2024-02-21T03:47:27;100722.45;;;8.38;76.33
72096;BME280;59968;51.084;16.748;2024-02-21T03:49:59;100722.69;;;8.35;76.35
72096;BME280;59968;51.084;16.748;2024-02-21T03:52:56;100716.70;;;8.39;76.30
72096;BME280;59968;51.084;16.748;2024-02-21T03:55:34;100717.31;;;8.44;76.08
72096;BME280;59968;51.084;16.748;2024-02-21T03:58:06;100716.05;;;8.45;76.04
72096;BME280;59968;51.084;16.748;2024-02-21T04:00:38;100717.04;;;8.42;76.03
72096;BME280;59968;51.084;16.748;2024-02-21T04:03:13;100713.67;;;8.38;76.04
72096;BME280;59968;51.084;16.748;2024-02-21T04:05:45;100712.57;;;8.39;75.86
72096;BME280;59968;51.084;16.748;2024-02-21T04:08:14;100709.64;;;8.36;75.83
72096;BME280;59968;51.084;16.748;2024-02-21T04:10:45;100706.67;;;8.33;75.95
72096;BME280;59968;51.084;16.748;2024-02-21T04:13:27;100707.55;;;8.36;75.67
72096;BME280;59968;51.084;16.748;2024-02-21T04:15:58;100702.30;;;8.29;75.77
72096;BME280;59968;51.084;16.748;2024-02-21T04:18:34;100701.10;;;8.21;75.83
72096;BME280;59968;51.084;16.748;2024-02-21T04:21:09;100703.77;;;8.18;75.95
72096;BME280;59968;51.084;16.748;2024-02-21T04:23:41;100702.14;;;8.19;75.97
72096;BME280;59968;51.084;16.748;2024-02-21T04:26:19;100702.56;;;8.18;76.14
72096;BME280;59968;51.084;16.748;2024-02-21T04:28:52;100696.13;;;8.21;76.08
72096;BME280;59968;51.084;16.748;2024-02-21T04:31:27;100685.66;;;8.20;76.09
72096;BME280;59968;51.084;16.748;2024-02-21T04:34:07;100685.35;;;8.21;76.01
72096;BME280;59968;51.084;16.748;2024-02-21T04:36:36;100687.47;;;8.23;76.08
72096;BME280;59968;51.084;16.748;2024-02-21T04:39:08;100689.60;;;8.24;76.09
72096;BME280;59968;51.084;16.748;2024-02-21T04:41:39;100684.21;;;8.26;75.87
72096;BME280;59968;51.084;16.748;2024-02-21T04:44:14;100684.77;;;8.27;75.81
72096;BME280;59968;51.084;16.748;2024-02-21T04:46:44;100685.99;;;8.57;74.95
72096;BME280;59968;51.084;16.748;2024-02-21T04:49:13;100673.17;;;8.81;73.57
72096;BME280;59968;51.084;16.748;2024-02-21T04:51:54;100681.59;;;8.92;73.22
72096;BME280;59968;51.084;16.748;2024-02-21T04:54:26;100680.27;;;8.98;73.05
72096;BME280;59968;51.084;16.748;2024-02-21T04:56:57;100672.44;;;8.99;72.79
72096;BME280;59968;51.084;16.748;2024-02-21T04:59:29;100677.69;;;9.05;72.64
72096;BME280;59968;51.084;16.748;2024-02-21T05:02:03;100670.65;;;9.06;72.55
72096;BME280;59968;51.084;16.748;2024-02-21T05:04:36;100670.83;;;9.09;72.27
72096;BME280;59968;51.084;16.748;2024-02-21T05:07:18;100670.58;;;9.13;72.15
72096;BME280;59968;51.084;16.748;2024-02-21T05:09:50;100669.11;;;9.16;71.91
72096;BME280;59968;51.084;16.748;2024-02-21T05:12:28;100656.59;;;9.12;71.73
72096;BME280;59968;51.084;16.748;2024-02-21T05:15:05;100664.96;;;9.23;71.50
72096;BME280;59968;51.084;16.748;2024-02-21T05:17:34;100661.02;;;9.28;71.34
72096;BME280;59968;51.084;16.748;2024-02-21T05:20:18;100663.59;;;9.31;71.14
72096;BME280;59968;51.084;16.748;2024-02-21T05:22:55;100661.48;;;9.33;71.07
72096;BME280;59968;51.084;16.748;2024-02-21T05:25:32;100659.17;;;9.33;70.95
72096;BME280;59968;51.084;16.748;2024-02-21T05:28:10;100658.27;;;9.37;70.87
72096;BME280;59968;51.084;16.748;2024-02-21T05:30:40;100657.02;;;9.40;70.78
72096;BME280;59968;51.084;16.748;2024-02-21T05:33:10;100658.79;;;9.37;70.80
72096;BME280;59968;51.084;16.748;2024-02-21T05:35:41;100652.27;;;9.42;70.57
72096;BME280;59968;51.084;16.748;2024-02-21T05:38:20;100656.08;;;9.45;70.32
72096;BME280;59968;51.084;16.748;2024-02-21T05:40:49;100653.70;;;9.46;70.21
72096;BME280;59968;51.084;16.748;2024-02-21T05:43:20;100652.89;;;9.47;70.09
72096;BME280;59968;51.084;16.748;2024-02-21T05:45:51;100652.73;;;9.47;70.11
72096;BME280;59968;51.084;16.748;2024-02-21T05:48:21;100651.14;;;9.48;70.11
72096;BME280;59968;51.084;16.748;2024-02-21T05:50:51;100645.77;;;9.48;70.03
72096;BME280;59968;51.084;16.748;2024-02-21T05:53:25;100647.05;;;9.46;70.10
72096;BME280;59968;51.084;16.748;2024-02-21T05:55:57;100642.09;;;9.47;70.10
72096;BME280;59968;51.084;16.748;2024-02-21T05:58:26;100638.79;;;9.47;70.04
72096;BME280;59968;51.084;16.748;2024-02-21T06:01:08;100643.30;;;9.48;70.02
72096;BME280;59968;51.084;16.748;2024-02-21T06:03:37;100643.29;;;9.47;70.07
72096;BME280;59968;51.084;16.748;2024-02-21T06:06:12;100642.02;;;9.47;69.97
72096;BME280;59968;51.084;16.748;2024-02-21T06:08:44;100640.70;;;9.50;70.04
72096;BME280;59968;51.084;16.748;2024-02-21T06:11:17;100644.85;;;9.51;69.98
72096;BME280;59968;51.084;16.748;2024-02-21T06:13:52;100640.30;;;9.55;69.82
72096;BME280;59968;51.084;16.748;2024-02-21T06:16:21;100640.20;;;9.56;69.84
72096;BME280;59968;51.084;16.748;2024-02-21T06:18:58;100643.38;;;9.57;69.72
72096;BME280;59968;51.084;16.748;2024-02-21T06:21:43;100641.59;;;9.57;69.76
72096;BME280;59968;51.084;16.748;2024-02-21T06:24:15;100643.22;;;9.55;69.80
72096;BME280;59968;51.084;16.748;2024-02-21T06:26:47;100642.05;;;9.56;69.80
72096;BME280;59968;51.084;16.748;2024-02-21T06:29:22;100638.40;;;9.58;69.77
72096;BME280;59968;51.084;16.748;2024-02-21T06:31:56;100640.84;;;9.60;69.84
72096;BME280;59968;51.084;16.748;2024-02-21T06:34:25;100640.37;;;9.63;69.73
72096;BME280;59968;51.084;16.748;2024-02-21T06:36:55;100640.69;;;9.68;69.72
72096;BME280;59968;51.084;16.748;2024-02-21T06:39:27;100638.30;;;9.71;69.68
72096;BME280;59968;51.084;16.748;2024-02-21T06:42:03;100639.08;;;9.74;69.63
72096;BME280;59968;51.084;16.748;2024-02-21T06:44:37;100641.23;;;9.75;69.70
72096;BME280;59968;51.084;16.748;2024-02-21T06:47:09;100639.52;;;9.75;69.81
72096;BME280;59968;51.084;16.748;2024-02-21T06:49:49;100637.19;;;9.79;69.79
72096;BME280;59968;51.084;16.748;2024-02-21T06:52:22;100639.27;;;9.82;69.87
72096;BME280;59968;51.084;16.748;2024-02-21T06:54:52;100633.36;;;9.84;69.97
72096;BME280;59968;51.084;16.748;2024-02-21T06:57:23;100634.98;;;9.86;69.97
72096;BME280;59968;51.084;16.748;2024-02-21T06:59:52;100629.41;;;9.86;70.09
72096;BME280;59968;51.084;16.748;2024-02-21T07:02:21;100631.60;;;9.88;70.13
72096;BME280;59968;51.084;16.748;2024-02-21T07:04:50;100630.84;;;9.91;70.18
72096;BME280;59968;51.084;16.748;2024-02-21T07:07:20;100632.70;;;9.95;70.16
72096;BME280;59968;51.084;16.748;2024-02-21T07:09:49;100631.27;;;9.97;70.22
72096;BME280;59968;51.084;16.748;2024-02-21T07:12:18;100631.52;;;10.01;70.11
72096;BME280;59968;51.084;16.748;2024-02-21T07:14:48;100627.79;;;9.99;70.31
72096;BME280;59968;51.084;16.748;2024-02-21T07:17:17;100626.04;;;9.98;70.46
72096;BME280;59968;51.084;16.748;2024-02-21T07:19:46;100623.59;;;9.91;70.63
72096;BME280;59968;51.084;16.748;2024-02-21T07:22:15;100628.52;;;9.96;70.62
72096;BME280;59968;51.084;16.748;2024-02-21T07:24:45;100630.09;;;9.99;70.57
72096;BME280;59968;51.084;16.748;2024-02-21T07:27:17;100624.96;;;10.02;70.59
72096;BME280;59968;51.084;16.748;2024-02-21T07:29:48;100622.27;;;10.08;70.59
72096;BME280;59968;51.084;16.748;2024-02-21T07:32:17;100625.30;;;10.11;70.53
72096;BME280;59968;51.084;16.748;2024-02-21T07:34:46;100617.73;;;10.16;70.50
72096;BME280;59968;51.084;16.748;2024-02-21T07:37:16;100617.27;;;10.21;70.36
72096;BME280;59968;51.084;16.748;2024-02-21T07:39:44;100612.68;;;10.23;70.24
72096;BME280;59968;51.084;16.748;2024-02-21T07:42:13;100611.82;;;10.27;70.15
72096;BME280;59968;51.084;16.748;2024-02-21T07:44:42;100605.17;;;10.31;70.20
72096;BME280;59968;51.084;16.748;2024-02-21T07:47:11;100602.36;;;10.36;70.17
72096;BME280;59968;51.084;16.748;2024-02-21T07:49:41;100601.96;;;10.39;70.12
72096;BME280;59968;51.084;16.748;2024-02-21T07:52:11;100596.73;;;10.41;70.12
72096;BME280;59968;51.084;16.748;2024-02-21T07:54:41;100595.15;;;10.43;70.07
72096;BME280;59968;51.084;16.748;2024-02-21T07:57:10;100596.17;;;10.46;69.97
72096;BME280;59968;51.084;16.748;2024-02-21T07:59:41;100591.64;;;10.49;69.86
72096;BME280;59968;51.084;16.748;2024-02-21T08:02:11;100588.61;;;10.53;70.11
72096;BME280;59968;51.084;16.748;2024-02-21T08:04:40;100585.76;;;10.58;70.13
72096;BME280;59968;51.084;16.748;2024-02-21T08:07:09;100587.96;;;10.61;70.20
72096;BME280;59968;51.084;16.748;2024-02-21T08:09:40;100592.52;;;10.63;70.16
72096;BME280;59968;51.084;16.748;2024-02-21T08:12:13;100588.19;;;10.02;72.00
72096;BME280;59968;51.084;16.748;2024-02-21T08:14:45;100583.81;;;10.07;72.00
72096;BME280;59968;51.084;16.748;2024-02-21T08:17:15;100581.54;;;9.94;72.39
72096;BME280;59968;51.084;16.748;2024-02-21T08:19:44;100583.31;;;9.92;72.64
72096;BME280;59968;51.084;16.748;2024-02-21T08:22:17;100583.73;;;9.94;72.68
72096;BME280;59968;51.084;16.748;2024-02-21T08:24:47;100582.85;;;9.99;72.72
72096;BME280;59968;51.084;16.748;2024-02-21T08:27:15;100586.71;;;10.04;72.63
72096;BME280;59968;51.084;16.748;2024-02-21T08:29:44;100586.39;;;10.07;72.57
72096;BME280;59968;51.084;16.748;2024-02-21T08:32:13;100583.72;;;10.08;72.53
72096;BME280;59968;51.084;16.748;2024-02-21T08:34:43;100580.91;;;10.10;72.53
72096;BME280;59968;51.084;16.748;2024-02-21T08:37:12;100579.97;;;10.10;72.40
72096;BME280;59968;51.084;16.748;2024-02-21T08:39:41;100576.63;;;10.09;72.30
72096;BME280;59968;51.084;16.748;2024-02-21T08:42:11;100574.27;;;10.10;72.26
72096;BME280;59968;51.084;16.748;2024-02-21T08:44:40;100572.75;;;10.12;72.47
72096;BME280;59968;51.084;16.748;2024-02-21T08:47:12;100564.15;;;10.14;72.47
72096;BME280;59968;51.084;16.748;2024-02-21T08:49:42;100564.73;;;10.16;72.66
72096;BME280;59968;51.084;16.748;2024-02-21T08:52:11;100563.45;;;10.19;72.74
72096;BME280;59968;51.084;16.748;2024-02-21T08:54:44;100562.02;;;10.20;72.82
72096;BME280;59968;51.084;16.748;2024-02-21T08:57:13;100560.96;;;10.24;72.87
72096;BME280;59968;51.084;16.748;2024-02-21T08:59:42;100563.61;;;10.27;72.74
72096;BME280;59968;51.084;16.748;2024-02-21T09:02:11;100561.89;;;10.30;72.51
72096;BME280;59968;51.084;16.748;2024-02-21T09:04:40;100565.19;;;10.33;72.42
72096;BME280;59968;51.084;16.748;2024-02-21T09:07:10;100561.66;;;10.35;72.42
72096;BME280;59968;51.084;16.748;2024-02-21T09:09:39;100559.52;;;10.38;72.08
72096;BME280;59968;51.084;16.748;2024-02-21T09:12:08;100556.23;;;10.40;71.93
72096;BME280;59968;51.084;16.748;2024-02-21T09:14:37;100556.84;;;10.43;72.02
72096;BME280;59968;51.084;16.748;2024-02-21T09:17:13;100556.25;;;10.43;72.14
72096;BME280;59968;51.084;16.748;2024-02-21T09:19:44;100554.61;;;10.44;72.32
72096;BME280;59968;51.084;16.748;2024-02-21T09:22:13;100551.98;;;10.46;72.75
72096;BME280;59968;51.084;16.748;2024-02-21T09:24:43;100549.96;;;10.48;72.94
72096;BME280;59968;51.084;16.748;2024-02-21T09:27:12;100541.89;;;10.49;72.91
72096;BME280;59968;51.084;16.748;2024-02-21T09:29:41;100540.59;;;10.51;72.71
72096;BME280;59968;51.084;16.748;2024-02-21T09:32:10;100541.58;;;10.53;72.62
72096;BME280;59968;51.084;16.748;2024-02-21T09:34:39;100545.29;;;10.56;72.94
72096;BME280;59968;51.084;16.748;2024-02-21T09:37:08;100545.05;;;10.60;73.18
72096;BME280;59968;51.084;16.748;2024-02-21T09:39:37;100522.27;;;10.42;73.46
72096;BME280;59968;51.084;16.748;2024-02-21T09:42:06;100545.11;;;10.59;73.84
72096;BME280;59968;51.084;16.748;2024-02-21T09:44:37;100541.17;;;10.65;74.09
72096;BME280;59968;51.084;16.748;2024-02-21T09:47:34;100539.73;;;10.68;73.73
72096;BME280;59968;51.084;16.748;2024-02-21T09:50:08;100535.65;;;10.70;73.70
72096;BME280;59968;51.084;16.748;2024-02-21T09:52:38;100536.70;;;10.76;73.52
72096;BME280;59968;51.084;16.748;2024-02-21T09:55:08;100539.23;;;10.76;73.77
72096;BME280;59968;51.084;16.748;2024-02-21T09:57:40;100539.73;;;10.82;73.58
72096;BME280;59968;51.084;16.748;2024-02-21T10:00:09;100542.73;;;10.86;73.26
72096;BME280;59968;51.084;16.748;2024-02-21T10:02:41;100545.58;;;10.95;72.65
72096;BME280;59968;51.084;16.748;2024-02-21T10:05:11;100543.98;;;10.97;72.56
72096;BME280;59968;51.084;16.748;2024-02-21T10:07:41;100541.95;;;10.98;72.56
72096;BME280;59968;51.084;16.748;2024-02-21T10:10:10;100545.33;;;10.98;72.21
72096;BME280;59968;51.084;16.748;2024-02-21T10:12:52;100541.92;;;11.02;71.83
72096;BME280;59968;51.084;16.748;2024-02-21T10:15:24;100533.04;;;10.91;71.58
72096;BME280;59968;51.084;16.748;2024-02-21T10:18:00;100545.22;;;10.97;71.74
72096;BME280;59968;51.084;16.748;2024-02-21T10:20:29;100542.77;;;10.87;71.96
72096;BME280;59968;51.084;16.748;2024-02-21T10:23:05;100539.55;;;10.85;72.04
72096;BME280;59968;51.084;16.748;2024-02-21T10:25:38;100539.17;;;10.87;72.23
72096;BME280;59968;51.084;16.748;2024-02-21T10:28:12;100538.10;;;10.87;72.27
72096;BME280;59968;51.084;16.748;2024-02-21T10:30:52;100543.90;;;10.87;72.31
72096;BME280;59968;51.084;16.748;2024-02-21T10:33:21;100541.11;;;10.88;72.57
72096;BME280;59968;51.084;16.748;2024-02-21T10:35:53;100535.55;;;10.91;72.61
72096;BME280;59968;51.084;16.748;2024-02-21T10:38:23;100534.60;;;10.91;72.29
72096;BME280;59968;51.084;16.748;2024-02-21T10:40:54;100530.50;;;10.94;72.30
72096;BME280;59968;51.084;16.748;2024-02-21T10:43:26;100527.91;;;10.97;72.27
72096;BME280;59968;51.084;16.748;2024-02-21T10:45:56;100524.60;;;10.98;72.15
72096;BME280;59968;51.084;16.748;2024-02-21T10:48:44;100518.94;;;11.03;72.18
72096;BME280;59968;51.084;16.748;2024-02-21T10:51:20;100515.02;;;11.09;72.16
72096;BME280;59968;51.084;16.748;2024-02-21T10:56:43;100504.36;;;11.18;72.33
72096;BME280;59968;51.084;16.748;2024-02-21T10:59:13;100500.59;;;11.26;72.21
72096;BME280;59968;51.084;16.748;2024-02-21T11:01:42;100491.58;;;11.34;72.02
72096;BME280;59968;51.084;16.748;2024-02-21T11:04:15;100487.86;;;11.39;71.72
72096;BME280;59968;51.084;16.748;2024-02-21T11:06:45;100485.56;;;11.42;71.61
72096;BME280;59968;51.084;16.748;2024-02-21T11:09:15;100486.79;;;11.52;71.37
72096;BME280;59968;51.084;16.748;2024-02-21T11:11:44;100488.27;;;11.66;70.82
72096;BME280;59968;51.084;16.748;2024-02-21T11:14:20;100483.61;;;11.59;70.99
72096;BME280;59968;51.084;16.748;2024-02-21T11:16:50;100482.56;;;11.69;70.90
72096;BME280;59968;51.084;16.748;2024-02-21T11:19:26;100476.62;;;11.79;70.55
72096;BME280;59968;51.084;16.748;2024-02-21T11:21:56;100467.80;;;11.83;70.02
72096;BME280;59968;51.084;16.748;2024-02-21T11:24:33;100460.37;;;11.83;69.56
72096;BME280;59968;51.084;16.748;2024-02-21T11:29:46;100459.52;;;12.00;69.50
72096;BME280;59968;51.084;16.748;2024-02-21T11:32:17;100454.19;;;12.08;69.13
72096;BME280;59968;51.084;16.748;2024-02-21T11:35:00;100446.83;;;12.15;68.80
72096;BME280;59968;51.084;16.748;2024-02-21T11:37:38;100444.05;;;12.23;68.74
72096;BME280;59968;51.084;16.748;2024-02-21T11:40:08;100443.59;;;12.31;68.24
72096;BME280;59968;51.084;16.748;2024-02-21T11:42:40;100444.75;;;12.31;67.87
72096;BME280;59968;51.084;16.748;2024-02-21T11:45:09;100443.83;;;12.27;67.92
72096;BME280;59968;51.084;16.748;2024-02-21T11:47:38;100439.21;;;12.26;67.55
72096;BME280;59968;51.084;16.748;2024-02-21T11:50:10;100437.77;;;12.26;67.49
72096;BME280;59968;51.084;16.748;2024-02-21T11:52:41;100439.78;;;12.30;67.41
72096;BME280;59968;51.084;16.748;2024-02-21T11:55:10;100444.42;;;12.31;67.40
72096;BME280;59968;51.084;16.748;2024-02-21T11:57:39;100445.98;;;12.31;67.23
72096;BME280;59968;51.084;16.748;2024-02-21T12:00:14;100445.02;;;12.31;66.99
72096;BME280;59968;51.084;16.748;2024-02-21T12:02:44;100443.70;;;12.27;66.45
72096;BME280;59968;51.084;16.748;2024-02-21T12:05:19;100438.30;;;12.24;66.71
72096;BME280;59968;51.084;16.748;2024-02-21T12:07:49;100429.91;;;12.20;66.51
72096;BME280;59968;51.084;16.748;2024-02-21T12:10:18;100425.90;;;12.27;66.62
72096;BME280;59968;51.084;16.748;2024-02-21T12:12:48;100420.70;;;12.29;66.75
72096;BME280;59968;51.084;16.748;2024-02-21T12:15:18;100408.70;;;12.31;66.54
72096;BME280;59968;51.084;16.748;2024-02-21T12:17:49;100405.10;;;12.35;66.62
72096;BME280;59968;51.084;16.748;2024-02-21T12:20:21;100405.11;;;12.38;66.65
72096;BME280;59968;51.084;16.748;2024-02-21T12:22:50;100402.19;;;12.39;66.41
72096;BME280;59968;51.084;16.748;2024-02-21T12:25:22;100403.27;;;12.37;66.19
72096;BME280;59968;51.084;16.748;2024-02-21T12:27:52;100392.02;;;12.30;66.08
72096;BME280;59968;51.084;16.748;2024-02-21T12:30:21;100398.45;;;12.34;65.86
72096;BME280;59968;51.084;16.748;2024-02-21T12:32:52;100397.23;;;12.34;65.94
72096;BME280;59968;51.084;16.748;2024-02-21T12:35:21;100392.25;;;12.34;66.06
72096;BME280;59968;51.084;16.748;2024-02-21T12:37:50;100383.42;;;12.34;65.98
72096;BME280;59968;51.084;16.748;2024-02-21T12:40:19;100383.02;;;12.35;65.73
72096;BME280;59968;51.084;16.748;2024-02-21T12:42:48;100381.55;;;12.38;65.81
72096;BME280;59968;51.084;16.748;2024-02-21T12:45:18;100380.30;;;12.38;65.78
72096;BME280;59968;51.084;16.748;2024-02-21T12:47:47;100380.66;;;12.39;66.04
72096;BME280;59968;51.084;16.748;2024-02-21T12:50:16;100374.34;;;12.41;66.12
72096;BME280;59968;51.084;16.748;2024-02-21T12:52:46;100366.77;;;12.41;65.94
72096;BME280;59968;51.084;16.748;2024-02-21T12:55:15;100362.94;;;12.42;65.95
72096;BME280;59968;51.084;16.748;2024-02-21T12:57:45;100354.48;;;12.44;66.17
72096;BME280;59968;51.084;16.748;2024-02-21T13:00:15;100350.77;;;12.49;66.11
72096;BME280;59968;51.084;16.748;2024-02-21T13:02:44;100351.58;;;12.53;66.06
72096;BME280;59968;51.084;16.748;2024-02-21T13:05:14;100350.25;;;12.57;66.00
72096;BME280;59968;51.084;16.748;2024-02-21T13:07:43;100351.50;;;12.59;65.99
72096;BME280;59968;51.084;16.748;2024-02-21T13:10:17;100348.94;;;12.59;65.82
72096;BME280;59968;51.084;16.748;2024-02-21T13:12:47;100343.81;;;12.56;65.72
72096;BME280;59968;51.084;16.748;2024-02-21T13:15:15;100342.33;;;12.54;66.05
72096;BME280;59968;51.084;16.748;2024-02-21T13:17:46;100336.17;;;12.54;65.87
72096;BME280;59968;51.084;16.748;2024-02-21T13:20:16;100333.09;;;12.59;65.06